sensor_id;sensor_type;location;lat;lon;timestamp;P1;durP1;ratioP1;P2;durP2;ratioP2
7017;SDS011;3549;42.162;24.726;2023-07-08T00:00:51;15.30;;;11.93;;
7017;SDS011;3549;42.162;24.726;2023-07-08T00:03:18;14.20;;;11.67;;
7017;SDS011;3549;42.162;24.726;2023-07-08T00:05:45;15.23;;;11.63;;
7017;SDS011;3549;42.162;24.726;2023-07-08T00:08:15;18.33;;;11.63;;
7017;SDS011;3549;42.162;24.726;2023-07-08T00:10:42;15.30;;;11.63;;
7017;SDS011;3549;42.162;24.726;2023-07-08T00:13:08;16.60;;;11.77;;
7017;SDS011;3549;42.162;24.726;2023-07-08T00:15:34;17.57;;;12.27;;
7017;SDS011;3549;42.162;24.726;2023-07-08T00:18:01;14.80;;;12.07;;
7017;SDS011;3549;42.162;24.726;2023-07-08T00:20:44;15.00;;;11.03;;
7017;SDS011;3549;42.162;24.726;2023-07-08T00:23:13;14.30;;;11.60;;
7017;SDS011;3549;42.162;24.726;2023-07-08T00:25:39;14.53;;;11.13;;
7017;SDS011;3549;42.162;24.726;2023-07-08T00:28:18;14.27;;;10.40;;
7017;SDS011;3549;42.162;24.726;2023-07-08T00:30:46;14.97;;;11.80;;
7017;SDS011;3549;42.162;24.726;2023-07-08T00:33:11;16.13;;;12.10;;
7017;SDS011;3549;42.162;24.726;2023-07-08T00:35:40;15.10;;;11.83;;
7017;SDS011;3549;42.162;24.726;2023-07-08T00:38:20;15.73;;;12.23;;
7017;SDS011;3549;42.162;24.726;2023-07-08T00:40:54;14.40;;;10.77;;
7017;SDS011;3549;42.162;24.726;2023-07-08T00:49:09;13.70;;;10.03;;
7017;SDS011;3549;42.162;24.726;2023-07-08T00:51:46;16.13;;;11.80;;
7017;SDS011;3549;42.162;24.726;2023-07-08T00:54:12;14.93;;;10.23;;
7017;SDS011;3549;42.162;24.726;2023-07-08T01:02:00;13.20;;;9.83;;
7017;SDS011;3549;42.162;24.726;2023-07-08T01:04:31;14.40;;;10.23;;
7017;SDS011;3549;42.162;24.726;2023-07-08T01:07:02;16.67;;;11.57;;
7017;SDS011;3549;42.162;24.726;2023-07-08T01:09:30;15.80;;;11.17;;
7017;SDS011;3549;42.162;24.726;2023-07-08T01:12:01;13.03;;;10.07;;
7017;SDS011;3549;42.162;24.726;2023-07-08T01:14:30;14.67;;;10.00;;
7017;SDS011;3549;42.162;24.726;2023-07-08T01:16:57;14.17;;;8.90;;
7017;SDS011;3549;42.162;24.726;2023-07-08T01:19:23;13.20;;;9.93;;
7017;SDS011;3549;42.162;24.726;2023-07-08T01:21:59;13.10;;;8.90;;
7017;SDS011;3549;42.162;24.726;2023-07-08T01:24:24;12.40;;;9.03;;
7017;SDS011;3549;42.162;24.726;2023-07-08T01:26:50;13.83;;;10.00;;
7017;SDS011;3549;42.162;24.726;2023-07-08T01:29:16;15.10;;;10.47;;
7017;SDS011;3549;42.162;24.726;2023-07-08T01:31:41;15.43;;;9.93;;
7017;SDS011;3549;42.162;24.726;2023-07-08T01:34:13;15.27;;;10.60;;
7017;SDS011;3549;42.162;24.726;2023-07-08T01:36:41;15.97;;;11.40;;
7017;SDS011;3549;42.162;24.726;2023-07-08T01:39:13;13.83;;;10.47;;
7017;SDS011;3549;42.162;24.726;2023-07-08T01:41:42;14.50;;;10.83;;
7017;SDS011;3549;42.162;24.726;2023-07-08T01:44:19;16.50;;;10.90;;
7017;SDS011;3549;42.162;24.726;2023-07-08T01:46:56;16.23;;;12.27;;
7017;SDS011;3549;42.162;24.726;2023-07-08T01:49:29;15.43;;;11.70;;
7017;SDS011;3549;42.162;24.726;2023-07-08T01:51:55;15.27;;;11.40;;
7017;SDS011;3549;42.162;24.726;2023-07-08T01:54:21;24.77;;;12.20;;
7017;SDS011;3549;42.162;24.726;2023-07-08T01:56:46;16.50;;;11.63;;
7017;SDS011;3549;42.162;24.726;2023-07-08T01:59:16;15.97;;;12.40;;
7017;SDS011;3549;42.162;24.726;2023-07-08T02:01:42;16.83;;;13.00;;
7017;SDS011;3549;42.162;24.726;2023-07-08T02:04:07;15.80;;;12.40;;
7017;SDS011;3549;42.162;24.726;2023-07-08T02:06:32;16.17;;;12.83;;
7017;SDS011;3549;42.162;24.726;2023-07-08T02:08:58;17.40;;;13.20;;
7017;SDS011;3549;42.162;24.726;2023-07-08T02:11:24;15.07;;;12.30;;
7017;SDS011;3549;42.162;24.726;2023-07-08T02:13:49;17.37;;;13.63;;
7017;SDS011;3549;42.162;24.726;2023-07-08T02:16:15;17.80;;;11.37;;
7017;SDS011;3549;42.162;24.726;2023-07-08T02:18:40;18.33;;;13.50;;
7017;SDS011;3549;42.162;24.726;2023-07-08T02:21:05;17.17;;;13.43;;
7017;SDS011;3549;42.162;24.726;2023-07-08T02:23:31;18.80;;;14.23;;
7017;SDS011;3549;42.162;24.726;2023-07-08T02:25:56;19.43;;;15.57;;
7017;SDS011;3549;42.162;24.726;2023-07-08T02:28:22;23.33;;;15.33;;
7017;SDS011;3549;42.162;24.726;2023-07-08T02:30:47;23.37;;;16.10;;
7017;SDS011;3549;42.162;24.726;2023-07-08T02:33:13;19.33;;;15.10;;
7017;SDS011;3549;42.162;24.726;2023-07-08T02:35:42;19.80;;;15.63;;
7017;SDS011;3549;42.162;24.726;2023-07-08T02:38:08;22.13;;;16.43;;
7017;SDS011;3549;42.162;24.726;2023-07-08T02:40:33;18.97;;;14.90;;
7017;SDS011;3549;42.162;24.726;2023-07-08T02:42:59;20.93;;;16.70;;
7017;SDS011;3549;42.162;24.726;2023-07-08T02:45:24;21.53;;;17.17;;
7017;SDS011;3549;42.162;24.726;2023-07-08T02:47:49;22.87;;;17.00;;
7017;SDS011;3549;42.162;24.726;2023-07-08T02:50:15;20.57;;;16.80;;
7017;SDS011;3549;42.162;24.726;2023-07-08T02:52:42;21.97;;;17.50;;
7017;SDS011;3549;42.162;24.726;2023-07-08T02:55:07;22.07;;;16.80;;
7017;SDS011;3549;42.162;24.726;2023-07-08T02:57:33;23.40;;;17.03;;
7017;SDS011;3549;42.162;24.726;2023-07-08T02:59:58;24.03;;;16.90;;
7017;SDS011;3549;42.162;24.726;2023-07-08T03:02:24;22.97;;;17.50;;
7017;SDS011;3549;42.162;24.726;2023-07-08T03:04:49;23.83;;;17.60;;
7017;SDS011;3549;42.162;24.726;2023-07-08T03:07:15;25.97;;;18.43;;
7017;SDS011;3549;42.162;24.726;2023-07-08T03:09:44;24.83;;;17.17;;
7017;SDS011;3549;42.162;24.726;2023-07-08T03:12:10;22.50;;;18.27;;
7017;SDS011;3549;42.162;24.726;2023-07-08T03:14:36;23.97;;;17.87;;
7017;SDS011;3549;42.162;24.726;2023-07-08T03:17:02;22.57;;;17.63;;
7017;SDS011;3549;42.162;24.726;2023-07-08T03:19:29;24.47;;;18.53;;
7017;SDS011;3549;42.162;24.726;2023-07-08T03:21:54;27.60;;;19.00;;
7017;SDS011;3549;42.162;24.726;2023-07-08T03:24:19;25.20;;;18.10;;
7017;SDS011;3549;42.162;24.726;2023-07-08T03:26:45;27.03;;;19.10;;
7017;SDS011;3549;42.162;24.726;2023-07-08T03:29:14;26.10;;;19.50;;
7017;SDS011;3549;42.162;24.726;2023-07-08T03:31:41;28.30;;;21.00;;
7017;SDS011;3549;42.162;24.726;2023-07-08T03:34:08;27.57;;;19.67;;
7017;SDS011;3549;42.162;24.726;2023-07-08T03:36:35;26.07;;;19.43;;
7017;SDS011;3549;42.162;24.726;2023-07-08T03:39:14;25.83;;;18.77;;
7017;SDS011;3549;42.162;24.726;2023-07-08T03:41:41;25.93;;;19.40;;
7017;SDS011;3549;42.162;24.726;2023-07-08T03:44:06;27.67;;;20.83;;
7017;SDS011;3549;42.162;24.726;2023-07-08T03:46:31;27.93;;;20.37;;
7017;SDS011;3549;42.162;24.726;2023-07-08T03:48:57;26.63;;;20.00;;
7017;SDS011;3549;42.162;24.726;2023-07-08T03:51:24;26.20;;;19.33;;
7017;SDS011;3549;42.162;24.726;2023-07-08T03:53:52;26.07;;;19.73;;
7017;SDS011;3549;42.162;24.726;2023-07-08T03:56:17;25.50;;;20.07;;
7017;SDS011;3549;42.162;24.726;2023-07-08T03:58:42;25.53;;;19.30;;
7017;SDS011;3549;42.162;24.726;2023-07-08T04:01:15;26.13;;;20.30;;
7017;SDS011;3549;42.162;24.726;2023-07-08T04:03:42;23.33;;;18.37;;
7017;SDS011;3549;42.162;24.726;2023-07-08T04:06:07;25.83;;;19.60;;
7017;SDS011;3549;42.162;24.726;2023-07-08T04:08:33;27.70;;;19.63;;
7017;SDS011;3549;42.162;24.726;2023-07-08T04:10:58;26.07;;;19.80;;
7017;SDS011;3549;42.162;24.726;2023-07-08T04:13:23;27.77;;;19.03;;
7017;SDS011;3549;42.162;24.726;2023-07-08T04:15:56;23.20;;;19.47;;
7017;SDS011;3549;42.162;24.726;2023-07-08T04:18:26;24.47;;;19.37;;
7017;SDS011;3549;42.162;24.726;2023-07-08T04:20:51;23.73;;;19.17;;
7017;SDS011;3549;42.162;24.726;2023-07-08T04:23:19;24.83;;;18.53;;
7017;SDS011;3549;42.162;24.726;2023-07-08T04:25:45;25.60;;;19.47;;
7017;SDS011;3549;42.162;24.726;2023-07-08T04:28:11;24.40;;;19.37;;
7017;SDS011;3549;42.162;24.726;2023-07-08T04:30:37;28.13;;;20.00;;
7017;SDS011;3549;42.162;24.726;2023-07-08T04:33:06;23.30;;;17.13;;
7017;SDS011;3549;42.162;24.726;2023-07-08T04:35:33;24.50;;;18.77;;
7017;SDS011;3549;42.162;24.726;2023-07-08T04:38:00;23.53;;;19.87;;
7017;SDS011;3549;42.162;24.726;2023-07-08T04:40:27;23.97;;;19.27;;
7017;SDS011;3549;42.162;24.726;2023-07-08T04:42:52;23.33;;;19.07;;
7017;SDS011;3549;42.162;24.726;2023-07-08T04:45:18;26.30;;;19.77;;
7017;SDS011;3549;42.162;24.726;2023-07-08T04:47:44;24.60;;;19.03;;
7017;SDS011;3549;42.162;24.726;2023-07-08T04:50:12;24.40;;;17.57;;
7017;SDS011;3549;42.162;24.726;2023-07-08T04:52:37;24.03;;;18.43;;
7017;SDS011;3549;42.162;24.726;2023-07-08T04:55:03;24.40;;;18.20;;
7017;SDS011;3549;42.162;24.726;2023-07-08T04:57:29;22.93;;;18.80;;
7017;SDS011;3549;42.162;24.726;2023-07-08T04:59:54;23.00;;;17.70;;
7017;SDS011;3549;42.162;24.726;2023-07-08T05:02:19;22.80;;;18.47;;
7017;SDS011;3549;42.162;24.726;2023-07-08T05:04:45;22.33;;;18.13;;
7017;SDS011;3549;42.162;24.726;2023-07-08T05:07:10;23.50;;;18.13;;
7017;SDS011;3549;42.162;24.726;2023-07-08T05:09:35;22.10;;;17.00;;
7017;SDS011;3549;42.162;24.726;2023-07-08T05:12:01;21.87;;;18.03;;
7017;SDS011;3549;42.162;24.726;2023-07-08T05:14:26;21.33;;;16.67;;
7017;SDS011;3549;42.162;24.726;2023-07-08T05:16:52;22.63;;;16.90;;
7017;SDS011;3549;42.162;24.726;2023-07-08T05:19:17;22.47;;;17.33;;
7017;SDS011;3549;42.162;24.726;2023-07-08T05:21:43;24.47;;;18.20;;
7017;SDS011;3549;42.162;24.726;2023-07-08T05:24:10;19.20;;;15.90;;
7017;SDS011;3549;42.162;24.726;2023-07-08T05:26:38;20.57;;;17.20;;
7017;SDS011;3549;42.162;24.726;2023-07-08T05:29:21;21.37;;;16.33;;
7017;SDS011;3549;42.162;24.726;2023-07-08T05:31:46;20.70;;;16.80;;
7017;SDS011;3549;42.162;24.726;2023-07-08T05:34:12;20.60;;;17.80;;
7017;SDS011;3549;42.162;24.726;2023-07-08T05:36:38;21.33;;;17.57;;
7017;SDS011;3549;42.162;24.726;2023-07-08T05:39:04;21.03;;;17.60;;
7017;SDS011;3549;42.162;24.726;2023-07-08T05:41:32;25.30;;;16.33;;
7017;SDS011;3549;42.162;24.726;2023-07-08T05:43:58;24.73;;;16.90;;
7017;SDS011;3549;42.162;24.726;2023-07-08T05:46:23;21.30;;;16.80;;
7017;SDS011;3549;42.162;24.726;2023-07-08T05:48:48;23.40;;;17.63;;
7017;SDS011;3549;42.162;24.726;2023-07-08T05:51:15;21.17;;;17.67;;
7017;SDS011;3549;42.162;24.726;2023-07-08T05:53:41;21.47;;;15.10;;
7017;SDS011;3549;42.162;24.726;2023-07-08T05:56:07;20.27;;;17.20;;
7017;SDS011;3549;42.162;24.726;2023-07-08T05:58:32;20.73;;;15.90;;
7017;SDS011;3549;42.162;24.726;2023-07-08T06:00:58;19.40;;;15.60;;
7017;SDS011;3549;42.162;24.726;2023-07-08T06:03:24;19.50;;;15.30;;
7017;SDS011;3549;42.162;24.726;2023-07-08T06:05:49;19.73;;;15.20;;
7017;SDS011;3549;42.162;24.726;2023-07-08T06:08:15;18.77;;;15.33;;
7017;SDS011;3549;42.162;24.726;2023-07-08T06:10:44;19.60;;;15.43;;
7017;SDS011;3549;42.162;24.726;2023-07-08T06:13:10;19.23;;;14.30;;
7017;SDS011;3549;42.162;24.726;2023-07-08T06:15:37;19.93;;;13.07;;
7017;SDS011;3549;42.162;24.726;2023-07-08T06:18:02;19.60;;;14.77;;
7017;SDS011;3549;42.162;24.726;2023-07-08T06:20:28;17.60;;;15.03;;
7017;SDS011;3549;42.162;24.726;2023-07-08T06:22:54;21.23;;;15.13;;
7017;SDS011;3549;42.162;24.726;2023-07-08T06:25:20;20.27;;;15.63;;
7017;SDS011;3549;42.162;24.726;2023-07-08T06:27:45;18.60;;;14.20;;
7017;SDS011;3549;42.162;24.726;2023-07-08T06:30:11;17.03;;;13.17;;
7017;SDS011;3549;42.162;24.726;2023-07-08T06:32:36;26.33;;;11.93;;
7017;SDS011;3549;42.162;24.726;2023-07-08T06:35:02;16.63;;;10.90;;
7017;SDS011;3549;42.162;24.726;2023-07-08T06:37:27;13.47;;;9.70;;
7017;SDS011;3549;42.162;24.726;2023-07-08T06:39:53;13.70;;;11.27;;
7017;SDS011;3549;42.162;24.726;2023-07-08T06:42:18;16.27;;;10.53;;
7017;SDS011;3549;42.162;24.726;2023-07-08T06:44:43;16.92;;;10.65;;
7017;SDS011;3549;42.162;24.726;2023-07-08T06:47:16;11.70;;;9.55;;
7017;SDS011;3549;42.162;24.726;2023-07-08T06:49:45;13.63;;;9.23;;
7017;SDS011;3549;42.162;24.726;2023-07-08T06:52:11;12.30;;;9.45;;
7017;SDS011;3549;42.162;24.726;2023-07-08T06:54:37;11.43;;;9.00;;
7017;SDS011;3549;42.162;24.726;2023-07-08T06:57:02;12.30;;;9.10;;
7017;SDS011;3549;42.162;24.726;2023-07-08T06:59:28;12.57;;;9.05;;
7017;SDS011;3549;42.162;24.726;2023-07-08T07:01:53;11.30;;;7.22;;
7017;SDS011;3549;42.162;24.726;2023-07-08T07:04:19;10.95;;;8.38;;
7017;SDS011;3549;42.162;24.726;2023-07-08T07:06:44;11.77;;;8.52;;
7017;SDS011;3549;42.162;24.726;2023-07-08T07:09:10;10.95;;;8.15;;
7017;SDS011;3549;42.162;24.726;2023-07-08T07:11:35;10.40;;;8.10;;
7017;SDS011;3549;42.162;24.726;2023-07-08T07:14:01;11.18;;;8.25;;
7017;SDS011;3549;42.162;24.726;2023-07-08T07:16:27;13.38;;;8.73;;
7017;SDS011;3549;42.162;24.726;2023-07-08T07:18:53;10.35;;;7.82;;
7017;SDS011;3549;42.162;24.726;2023-07-08T07:21:18;11.23;;;8.70;;
7017;SDS011;3549;42.162;24.726;2023-07-08T07:23:44;10.98;;;8.82;;
7017;SDS011;3549;42.162;24.726;2023-07-08T07:26:09;10.95;;;7.55;;
7017;SDS011;3549;42.162;24.726;2023-07-08T07:28:34;13.05;;;8.95;;
7017;SDS011;3549;42.162;24.726;2023-07-08T07:31:00;11.75;;;9.50;;
7017;SDS011;3549;42.162;24.726;2023-07-08T07:33:26;9.95;;;8.02;;
7017;SDS011;3549;42.162;24.726;2023-07-08T07:35:51;12.20;;;8.98;;
7017;SDS011;3549;42.162;24.726;2023-07-08T07:38:17;14.43;;;9.18;;
7017;SDS011;3549;42.162;24.726;2023-07-08T07:40:43;10.70;;;8.75;;
7017;SDS011;3549;42.162;24.726;2023-07-08T07:43:09;10.52;;;9.25;;
7017;SDS011;3549;42.162;24.726;2023-07-08T07:45:34;12.00;;;8.45;;
7017;SDS011;3549;42.162;24.726;2023-07-08T07:48:00;9.52;;;7.97;;
7017;SDS011;3549;42.162;24.726;2023-07-08T07:50:26;10.63;;;8.00;;
7017;SDS011;3549;42.162;24.726;2023-07-08T07:52:52;13.98;;;8.75;;
7017;SDS011;3549;42.162;24.726;2023-07-08T07:55:19;8.98;;;7.90;;
7017;SDS011;3549;42.162;24.726;2023-07-08T07:57:44;11.00;;;7.75;;
7017;SDS011;3549;42.162;24.726;2023-07-08T08:00:11;9.10;;;7.43;;
7017;SDS011;3549;42.162;24.726;2023-07-08T08:02:39;9.10;;;7.68;;
7017;SDS011;3549;42.162;24.726;2023-07-08T08:05:05;8.52;;;6.32;;
7017;SDS011;3549;42.162;24.726;2023-07-08T08:07:31;9.02;;;7.32;;
7017;SDS011;3549;42.162;24.726;2023-07-08T08:09:56;8.63;;;6.72;;
7017;SDS011;3549;42.162;24.726;2023-07-08T08:12:21;11.30;;;7.72;;
7017;SDS011;3549;42.162;24.726;2023-07-08T08:14:49;7.95;;;6.30;;
7017;SDS011;3549;42.162;24.726;2023-07-08T08:17:15;9.57;;;6.28;;
7017;SDS011;3549;42.162;24.726;2023-07-08T08:19:41;9.30;;;6.40;;
7017;SDS011;3549;42.162;24.726;2023-07-08T08:22:06;8.52;;;6.55;;
7017;SDS011;3549;42.162;24.726;2023-07-08T08:24:32;8.68;;;7.78;;
7017;SDS011;3549;42.162;24.726;2023-07-08T08:26:58;9.88;;;6.95;;
7017;SDS011;3549;42.162;24.726;2023-07-08T08:29:23;9.38;;;6.85;;
7017;SDS011;3549;42.162;24.726;2023-07-08T08:31:50;8.30;;;6.97;;
7017;SDS011;3549;42.162;24.726;2023-07-08T08:34:16;8.23;;;6.72;;
7017;SDS011;3549;42.162;24.726;2023-07-08T08:36:42;11.77;;;6.93;;
7017;SDS011;3549;42.162;24.726;2023-07-08T08:39:08;8.32;;;6.50;;
7017;SDS011;3549;42.162;24.726;2023-07-08T08:41:34;10.70;;;7.13;;
7017;SDS011;3549;42.162;24.726;2023-07-08T08:44:01;9.02;;;5.97;;
7017;SDS011;3549;42.162;24.726;2023-07-08T08:49:25;11.77;;;5.97;;
7017;SDS011;3549;42.162;24.726;2023-07-08T08:51:52;14.73;;;6.40;;
7017;SDS011;3549;42.162;24.726;2023-07-08T08:54:18;11.52;;;6.32;;
7017;SDS011;3549;42.162;24.726;2023-07-08T08:57:01;6.75;;;5.97;;
7017;SDS011;3549;42.162;24.726;2023-07-08T08:59:34;9.77;;;6.22;;
7017;SDS011;3549;42.162;24.726;2023-07-08T09:05:10;9.52;;;6.05;;
7017;SDS011;3549;42.162;24.726;2023-07-08T09:10:48;7.15;;;6.10;;
7017;SDS011;3549;42.162;24.726;2023-07-08T09:13:24;6.93;;;5.82;;
7017;SDS011;3549;42.162;24.726;2023-07-08T09:16:07;10.55;;;5.88;;
7017;SDS011;3549;42.162;24.726;2023-07-08T09:18:55;6.65;;;5.70;;
7017;SDS011;3549;42.162;24.726;2023-07-08T09:24:16;7.65;;;6.43;;
7017;SDS011;3549;42.162;24.726;2023-07-08T09:26:45;7.75;;;6.07;;
7017;SDS011;3549;42.162;24.726;2023-07-08T09:29:13;9.32;;;6.05;;
7017;SDS011;3549;42.162;24.726;2023-07-08T09:31:39;9.80;;;6.10;;
7017;SDS011;3549;42.162;24.726;2023-07-08T09:34:08;10.20;;;6.15;;
7017;SDS011;3549;42.162;24.726;2023-07-08T09:36:38;11.00;;;6.10;;
7017;SDS011;3549;42.162;24.726;2023-07-08T09:39:12;7.57;;;6.10;;
7017;SDS011;3549;42.162;24.726;2023-07-08T09:41:40;6.57;;;5.88;;
7017;SDS011;3549;42.162;24.726;2023-07-08T09:44:14;6.78;;;5.95;;
7017;SDS011;3549;42.162;24.726;2023-07-08T09:46:48;7.72;;;5.80;;
7017;SDS011;3549;42.162;24.726;2023-07-08T09:49:18;8.13;;;6.32;;
7017;SDS011;3549;42.162;24.726;2023-07-08T09:51:56;6.35;;;5.65;;
7017;SDS011;3549;42.162;24.726;2023-07-08T09:54:22;6.43;;;4.82;;
7017;SDS011;3549;42.162;24.726;2023-07-08T09:57:02;6.28;;;5.40;;
7017;SDS011;3549;42.162;24.726;2023-07-08T09:59:45;11.90;;;7.72;;
7017;SDS011;3549;42.162;24.726;2023-07-08T10:02:20;12.80;;;5.43;;
7017;SDS011;3549;42.162;24.726;2023-07-08T10:05:03;7.85;;;5.05;;
7017;SDS011;3549;42.162;24.726;2023-07-08T10:07:37;6.10;;;5.50;;
7017;SDS011;3549;42.162;24.726;2023-07-08T10:10:04;7.82;;;5.18;;
7017;SDS011;3549;42.162;24.726;2023-07-08T10:12:36;9.05;;;7.93;;
7017;SDS011;3549;42.162;24.726;2023-07-08T10:15:13;54.33;;;40.25;;
7017;SDS011;3549;42.162;24.726;2023-07-08T10:17:46;6.30;;;5.07;;
7017;SDS011;3549;42.162;24.726;2023-07-08T10:20:12;19.02;;;15.65;;
7017;SDS011;3549;42.162;24.726;2023-07-08T10:22:47;7.60;;;6.80;;
7017;SDS011;3549;42.162;24.726;2023-07-08T10:25:23;13.35;;;8.32;;
7017;SDS011;3549;42.162;24.726;2023-07-08T10:30:46;8.27;;;5.78;;
7017;SDS011;3549;42.162;24.726;2023-07-08T10:38:59;7.35;;;5.60;;
7017;SDS011;3549;42.162;24.726;2023-07-08T10:41:59;6.32;;;5.20;;
7017;SDS011;3549;42.162;24.726;2023-07-08T10:44:39;8.05;;;5.28;;
7017;SDS011;3549;42.162;24.726;2023-07-08T10:50:30;7.53;;;5.20;;
7017;SDS011;3549;42.162;24.726;2023-07-08T10:53:09;10.73;;;5.45;;
7017;SDS011;3549;42.162;24.726;2023-07-08T11:07:00;5.85;;;4.75;;
7017;SDS011;3549;42.162;24.726;2023-07-08T11:09:37;5.88;;;4.78;;
7017;SDS011;3549;42.162;24.726;2023-07-08T11:12:19;8.68;;;5.43;;
7017;SDS011;3549;42.162;24.726;2023-07-08T11:14:49;6.53;;;5.00;;
7017;SDS011;3549;42.162;24.726;2023-07-08T11:17:25;6.43;;;4.90;;
7017;SDS011;3549;42.162;24.726;2023-07-08T11:19:59;9.32;;;5.50;;
7017;SDS011;3549;42.162;24.726;2023-07-08T11:25:46;6.82;;;5.93;;
7017;SDS011;3549;42.162;24.726;2023-07-08T11:28:17;6.65;;;5.40;;
7017;SDS011;3549;42.162;24.726;2023-07-08T11:30:46;6.80;;;5.50;;
7017;SDS011;3549;42.162;24.726;2023-07-08T11:33:15;7.78;;;5.53;;
7017;SDS011;3549;42.162;24.726;2023-07-08T11:35:49;8.82;;;5.68;;
7017;SDS011;3549;42.162;24.726;2023-07-08T11:38:17;6.80;;;5.60;;
7017;SDS011;3549;42.162;24.726;2023-07-08T11:43:26;8.18;;;5.47;;
7017;SDS011;3549;42.162;24.726;2023-07-08T11:46:00;9.40;;;6.28;;
7017;SDS011;3549;42.162;24.726;2023-07-08T11:48:30;6.25;;;5.55;;
7017;SDS011;3549;42.162;24.726;2023-07-08T11:51:03;7.65;;;5.68;;
7017;SDS011;3549;42.162;24.726;2023-07-08T11:56:00;5.82;;;5.30;;
7017;SDS011;3549;42.162;24.726;2023-07-08T11:58:49;8.45;;;5.72;;
7017;SDS011;3549;42.162;24.726;2023-07-08T12:03:54;5.75;;;4.72;;
7017;SDS011;3549;42.162;24.726;2023-07-08T12:08:57;6.63;;;5.47;;
7017;SDS011;3549;42.162;24.726;2023-07-08T12:11:27;6.28;;;4.93;;
7017;SDS011;3549;42.162;24.726;2023-07-08T12:13:58;6.43;;;5.65;;
7017;SDS011;3549;42.162;24.726;2023-07-08T12:16:26;6.15;;;5.00;;
7017;SDS011;3549;42.162;24.726;2023-07-08T12:18:53;6.95;;;4.78;;
7017;SDS011;3549;42.162;24.726;2023-07-08T12:21:22;5.78;;;4.90;;
7017;SDS011;3549;42.162;24.726;2023-07-08T12:23:51;7.28;;;5.22;;
7017;SDS011;3549;42.162;24.726;2023-07-08T12:26:16;5.95;;;5.03;;
7017;SDS011;3549;42.162;24.726;2023-07-08T12:28:42;6.32;;;5.22;;
7017;SDS011;3549;42.162;24.726;2023-07-08T12:31:18;6.20;;;5.60;;
7017;SDS011;3549;42.162;24.726;2023-07-08T12:33:46;5.40;;;4.90;;
7017;SDS011;3549;42.162;24.726;2023-07-08T12:36:29;6.18;;;4.50;;
7017;SDS011;3549;42.162;24.726;2023-07-08T12:38:57;6.55;;;4.90;;
7017;SDS011;3549;42.162;24.726;2023-07-08T12:41:25;6.05;;;4.25;;
7017;SDS011;3549;42.162;24.726;2023-07-08T12:43:54;5.60;;;4.60;;
7017;SDS011;3549;42.162;24.726;2023-07-08T12:46:20;5.97;;;4.75;;
7017;SDS011;3549;42.162;24.726;2023-07-08T12:48:47;7.82;;;5.05;;
7017;SDS011;3549;42.162;24.726;2023-07-08T12:51:19;5.65;;;4.63;;
7017;SDS011;3549;42.162;24.726;2023-07-08T12:53:50;4.70;;;4.18;;
7017;SDS011;3549;42.162;24.726;2023-07-08T12:56:17;7.93;;;4.72;;
7017;SDS011;3549;42.162;24.726;2023-07-08T12:58:45;4.75;;;4.25;;
7017;SDS011;3549;42.162;24.726;2023-07-08T13:01:21;7.22;;;4.35;;
7017;SDS011;3549;42.162;24.726;2023-07-08T13:03:51;8.45;;;3.80;;
7017;SDS011;3549;42.162;24.726;2023-07-08T13:06:20;6.65;;;3.63;;
7017;SDS011;3549;42.162;24.726;2023-07-08T13:08:48;9.48;;;3.70;;
7017;SDS011;3549;42.162;24.726;2023-07-08T13:11:16;9.38;;;4.20;;
7017;SDS011;3549;42.162;24.726;2023-07-08T13:13:46;8.48;;;3.92;;
7017;SDS011;3549;42.162;24.726;2023-07-08T13:16:15;8.98;;;3.70;;
7017;SDS011;3549;42.162;24.726;2023-07-08T13:18:41;11.55;;;4.35;;
7017;SDS011;3549;42.162;24.726;2023-07-08T13:21:09;6.47;;;3.70;;
7017;SDS011;3549;42.162;24.726;2023-07-08T13:23:37;8.23;;;3.78;;
7017;SDS011;3549;42.162;24.726;2023-07-08T13:26:14;11.32;;;4.18;;
7017;SDS011;3549;42.162;24.726;2023-07-08T13:28:41;10.10;;;3.75;;
7017;SDS011;3549;42.162;24.726;2023-07-08T13:31:19;5.15;;;3.40;;
7017;SDS011;3549;42.162;24.726;2023-07-08T13:33:52;6.68;;;3.17;;
7017;SDS011;3549;42.162;24.726;2023-07-08T13:36:21;5.50;;;2.50;;
7017;SDS011;3549;42.162;24.726;2023-07-08T13:38:57;5.85;;;2.45;;
7017;SDS011;3549;42.162;24.726;2023-07-08T13:41:24;6.03;;;2.80;;
7017;SDS011;3549;42.162;24.726;2023-07-08T13:43:50;5.20;;;2.58;;
7017;SDS011;3549;42.162;24.726;2023-07-08T13:48:53;5.20;;;2.28;;
7017;SDS011;3549;42.162;24.726;2023-07-08T13:51:19;5.20;;;2.30;;
7017;SDS011;3549;42.162;24.726;2023-07-08T13:54:13;3.45;;;2.10;;
7017;SDS011;3549;42.162;24.726;2023-07-08T13:56:38;4.07;;;2.10;;
7017;SDS011;3549;42.162;24.726;2023-07-08T13:59:07;3.83;;;2.28;;
7017;SDS011;3549;42.162;24.726;2023-07-08T14:01:36;3.25;;;1.80;;
7017;SDS011;3549;42.162;24.726;2023-07-08T14:04:04;2.90;;;1.90;;
7017;SDS011;3549;42.162;24.726;2023-07-08T14:06:31;2.10;;;1.90;;
7017;SDS011;3549;42.162;24.726;2023-07-08T14:09:01;2.78;;;1.90;;
7017;SDS011;3549;42.162;24.726;2023-07-08T14:11:39;2.10;;;1.90;;
7017;SDS011;3549;42.162;24.726;2023-07-08T14:14:04;2.28;;;2.08;;
7017;SDS011;3549;42.162;24.726;2023-07-08T14:16:31;4.05;;;2.35;;
7017;SDS011;3549;42.162;24.726;2023-07-08T14:18:59;4.05;;;2.58;;
7017;SDS011;3549;42.162;24.726;2023-07-08T14:21:28;3.38;;;2.30;;
7017;SDS011;3549;42.162;24.726;2023-07-08T14:23:54;4.15;;;3.03;;
7017;SDS011;3549;42.162;24.726;2023-07-08T14:26:20;3.22;;;2.65;;
7017;SDS011;3549;42.162;24.726;2023-07-08T14:28:46;6.35;;;3.90;;
7017;SDS011;3549;42.162;24.726;2023-07-08T14:31:12;5.68;;;3.88;;
7017;SDS011;3549;42.162;24.726;2023-07-08T14:33:39;5.00;;;3.40;;
7017;SDS011;3549;42.162;24.726;2023-07-08T14:36:09;4.03;;;3.20;;
7017;SDS011;3549;42.162;24.726;2023-07-08T14:38:36;3.78;;;3.22;;
7017;SDS011;3549;42.162;24.726;2023-07-08T14:41:02;5.15;;;3.65;;
7017;SDS011;3549;42.162;24.726;2023-07-08T14:43:28;5.43;;;3.53;;
7017;SDS011;3549;42.162;24.726;2023-07-08T14:45:55;5.00;;;3.38;;
7017;SDS011;3549;42.162;24.726;2023-07-08T14:48:23;5.28;;;3.33;;
7017;SDS011;3549;42.162;24.726;2023-07-08T14:50:49;3.78;;;3.38;;
7017;SDS011;3549;42.162;24.726;2023-07-08T14:53:15;4.95;;;3.60;;
7017;SDS011;3549;42.162;24.726;2023-07-08T14:55:42;4.03;;;3.53;;
7017;SDS011;3549;42.162;24.726;2023-07-08T14:58:31;6.90;;;3.80;;
7017;SDS011;3549;42.162;24.726;2023-07-08T15:00:58;4.03;;;3.58;;
7017;SDS011;3549;42.162;24.726;2023-07-08T15:03:27;4.72;;;3.88;;
7017;SDS011;3549;42.162;24.726;2023-07-08T15:05:53;4.10;;;3.70;;
7017;SDS011;3549;42.162;24.726;2023-07-08T15:08:19;4.93;;;3.70;;
7017;SDS011;3549;42.162;24.726;2023-07-08T15:10:48;5.50;;;3.60;;
7017;SDS011;3549;42.162;24.726;2023-07-08T15:13:16;4.80;;;3.40;;
7017;SDS011;3549;42.162;24.726;2023-07-08T15:15:44;3.67;;;3.35;;
7017;SDS011;3549;42.162;24.726;2023-07-08T15:18:11;5.55;;;3.40;;
7017;SDS011;3549;42.162;24.726;2023-07-08T15:20:39;5.97;;;3.78;;
7017;SDS011;3549;42.162;24.726;2023-07-08T15:23:05;5.15;;;3.65;;
7017;SDS011;3549;42.162;24.726;2023-07-08T15:25:31;5.43;;;3.50;;
7017;SDS011;3549;42.162;24.726;2023-07-08T15:27:59;5.57;;;3.50;;
7017;SDS011;3549;42.162;24.726;2023-07-08T15:30:27;4.67;;;3.40;;
7017;SDS011;3549;42.162;24.726;2023-07-08T15:32:54;3.78;;;3.40;;
7017;SDS011;3549;42.162;24.726;2023-07-08T15:35:20;5.35;;;3.75;;
7017;SDS011;3549;42.162;24.726;2023-07-08T15:37:55;5.35;;;3.50;;
7017;SDS011;3549;42.162;24.726;2023-07-08T15:40:22;4.28;;;3.22;;
7017;SDS011;3549;42.162;24.726;2023-07-08T15:42:49;5.55;;;3.20;;
7017;SDS011;3549;42.162;24.726;2023-07-08T15:47:51;3.40;;;3.10;;
7017;SDS011;3549;42.162;24.726;2023-07-08T15:50:18;4.72;;;3.20;;
7017;SDS011;3549;42.162;24.726;2023-07-08T15:52:49;4.25;;;3.38;;
7017;SDS011;3549;42.162;24.726;2023-07-08T15:55:16;4.07;;;3.33;;
7017;SDS011;3549;42.162;24.726;2023-07-08T15:57:51;4.57;;;3.20;;
7017;SDS011;3549;42.162;24.726;2023-07-08T16:00:21;3.83;;;3.35;;